Time;durP1;ratioP1;P1;durP2;ratioP2;P2;SDS_P1;SDS_P2;PMS_P1;PMS_P2;Temp;Humidity;BMP_temperature;BMP_pressure;BME280_temperature;BME280_humidity;BME280_pressure;Samples;Min_cycle;Max_cycle;Signal;HPM_P1;HPM_P2
2023/08/11 00:02:23;;;;;;;13.02;7.15;;;;;;;17.65;100.00;101058.09;8244599;28;20035;-88
2023/08/11 00:06:25;;;;;;;13.13;7.30;;;;;;;17.58;100.00;101053.31;8253327;28;20047;-88
2023/08/11 00:10:25;;;;;;;13.20;6.78;;;;;;;17.44;100.00;101034.88;8245560;28;20062;-88
2023/08/11 00:14:26;;;;;;;13.20;6.85;;;;;;;17.30;100.00;101040.16;8268077;28;20043;-87
2023/08/11 00:18:26;;;;;;;15.57;6.70;;;;;;;17.28;100.00;101044.91;8236899;28;20057;-87
2023/08/11 00:22:27;;;;;;;13.23;6.78;;;;;;;17.15;100.00;101028.19;8235840;28;20073;-88
2023/08/11 00:26:30;;;;;;;18.55;7.55;;;;;;;17.25;100.00;101028.84;8254198;28;20030;-88
2023/08/11 00:30:30;;;;;;;11.63;6.03;;;;;;;17.24;100.00;101021.69;8266494;28;20042;-89
2023/08/11 00:34:31;;;;;;;13.02;6.53;;;;;;;17.24;100.00;101024.44;8254393;28;20497;-88
2023/08/11 00:38:39;;;;;;;12.27;5.60;;;;;;;17.41;100.00;101037.03;8219851;28;20035;-88
2023/08/11 00:42:39;;;;;;;12.85;5.75;;;;;;;17.38;100.00;101037.38;8252675;28;20122;-89
2023/08/11 00:46:42;;;;;;;12.35;6.53;;;;;;;17.36;100.00;101036.72;8219918;28;20046;-89
2023/08/11 00:50:43;;;;;;;14.23;6.68;;;;;;;17.31;100.00;101022.72;8252024;28;20405;-88
2023/08/11 00:54:44;;;;;;;16.90;6.93;;;;;;;17.29;100.00;101013.81;8220843;28;20061;-88
2023/08/11 00:58:45;;;;;;;17.38;6.95;;;;;;;17.24;100.00;101024.44;8219487;28;20158;-88
2023/08/11 01:02:46;;;;;;;12.95;6.65;;;;;;;17.25;100.00;101023.38;8217933;28;20096;-88
2023/08/11 01:06:58;;;;;;;13.77;6.97;;;;;;;17.16;100.00;101018.94;8234250;28;20039;-88
2023/08/11 01:11:17;;;;;;;13.63;6.53;;;;;;;17.07;99.71;101003.56;8268976;28;20050;-88
2023/08/11 01:15:24;;;;;;;14.50;6.13;;;;;;;17.07;99.77;101003.56;8238232;28;20018;-88
2023/08/11 01:19:32;;;;;;;13.32;6.78;;;;;;;16.98;100.00;101001.88;8271101;28;20046;-89
2023/08/11 01:23:34;;;;;;;12.18;6.65;;;;;;;17.06;100.00;101021.00;8209015;28;20026;-89
2023/08/11 01:27:36;;;;;;;13.55;6.00;;;;;;;17.01;100.00;101004.25;8288037;28;20050;-87
2023/08/11 01:31:37;;;;;;;20.33;6.03;;;;;;;16.72;100.00;100982.06;8245460;28;20038;-88
2023/08/11 01:35:37;;;;;;;14.02;6.75;;;;;;;16.90;100.00;101012.81;8275892;28;20041;-87
2023/08/11 01:39:38;;;;;;;15.05;6.50;;;;;;;16.88;100.00;100992.97;8241876;28;20077;-87
2023/08/11 01:43:41;;;;;;;14.00;6.25;;;;;;;16.98;100.00;100993.66;8264637;28;20045;-88
2023/08/11 01:47:45;;;;;;;12.63;6.20;;;;;;;16.81;100.00;100967.38;8241249;28;20043;-87
2023/08/11 01:51:45;;;;;;;18.53;6.17;;;;;;;16.87;100.00;100991.28;8225155;28;20129;-88
2023/08/11 01:55:50;;;;;;;18.27;6.80;;;;;;;16.77;100.00;100976.94;8229193;28;20498;-87
2023/08/11 01:59:52;;;;;;;13.07;6.28;;;;;;;16.76;100.00;100972.50;8235853;28;20062;-88
2023/08/11 02:03:52;;;;;;;12.63;6.05;;;;;;;16.57;100.00;100975.53;8238271;28;20042;-87
2023/08/11 02:07:55;;;;;;;13.70;6.28;;;;;;;16.57;100.00;100967.34;8242193;28;20038;-87
2023/08/11 02:11:55;;;;;;;11.73;5.88;;;;;;;16.40;100.00;100960.09;8217856;28;20066;-87
2023/08/11 02:15:56;;;;;;;11.35;6.55;;;;;;;16.40;100.00;100971.00;8236109;28;20109;-88
2023/08/11 02:19:58;;;;;;;9.60;6.45;;;;;;;16.40;100.00;100971.00;8234661;28;20070;-87
2023/08/11 02:23:58;;;;;;;13.10;6.43;;;;;;;16.55;100.00;100991.22;8233024;28;20046;-88
2023/08/11 02:27:59;;;;;;;15.60;6.68;;;;;;;16.21;100.00;100955.81;8268399;28;20045;-87
2023/08/11 02:32:03;;;;;;;13.52;6.85;;;;;;;16.29;100.00;100974.94;8233615;28;20042;-87
2023/08/11 02:36:04;;;;;;;13.05;6.57;;;;;;;16.28;100.00;100980.56;8267943;28;20089;-87
2023/08/11 02:40:09;;;;;;;16.50;6.15;;;;;;;16.20;100.00;100975.94;8233102;28;20042;-87
2023/08/11 02:44:09;;;;;;;;;;;;;;;16.21;100.00;100982.22;8290860;28;20027;-87
2023/08/11 02:48:09;;;;;;;11.57;5.67;;;;;;;15.92;100.00;100927.25;8301375;28;19958;-88
2023/08/11 02:52:11;;;;;;;10.52;5.57;;;;;;;16.12;100.00;100961.38;8278007;28;20788;-88
2023/08/11 02:56:15;;;;;;;11.55;5.88;;;;;;;16.27;100.00;100970.66;8224497;28;20441;-87
2023/08/11 03:00:16;;;;;;;14.68;6.15;;;;;;;16.22;100.00;100959.41;8239020;28;20043;-88
2023/08/11 03:04:16;;;;;;;9.65;5.57;;;;;;;16.33;100.00;100969.97;8224617;28;20077;-88
2023/08/11 03:08:17;;;;;;;14.75;7.22;;;;;;;16.27;100.00;100970.66;8237860;28;20090;-88
2023/08/11 03:12:18;;;;;;;10.70;5.07;;;;;;;16.27;100.00;100965.19;8259205;28;20521;-87
2023/08/11 03:16:19;;;;;;;14.93;5.65;;;;;;;16.21;100.00;100965.84;8268634;28;20043;-87
2023/08/11 03:20:19;;;;;;;12.07;5.82;;;;;;;15.88;100.00;100920.38;8270444;28;20042;-87
2023/08/11 03:24:21;;;;;;;10.15;5.43;;;;;;;16.01;100.00;100957.09;8248529;28;20050;-86
2023/08/11 03:28:21;;;;;;;13.13;5.72;;;;;;;15.91;100.00;100953.66;8222254;28;20043;-87
2023/08/11 03:32:23;;;;;;;13.15;5.45;;;;;;;16.09;100.00;100964.44;8206101;28;20050;-87
2023/08/11 03:36:27;;;;;;;13.68;5.70;;;;;;;15.97;100.00;100957.56;8222321;28;20042;-87
2023/08/11 03:40:31;;;;;;;13.85;6.10;;;;;;;16.05;100.00;100976.72;8245079;28;20055;-87
2023/08/11 03:44:31;;;;;;;11.75;6.00;;;;;;;15.95;100.00;100978.72;8237103;28;20082;-88
2023/08/11 03:48:34;;;;;;;11.93;5.63;;;;;;;15.77;100.00;100961.59;8271604;28;20039;-89
2023/08/11 03:52:36;;;;;;;9.48;5.25;;;;;;;15.83;100.00;100977.31;8239445;28;20051;-90
2023/08/11 03:56:37;;;;;;;15.05;5.75;;;;;;;15.79;100.00;100965.03;8256527;28;20047;-90
2023/08/11 04:00:40;;;;;;;9.43;5.35;;;;;;;15.88;100.00;100973.06;8224176;28;20123;-90
2023/08/11 04:04:45;;;;;;;14.00;5.57;;;;;;;15.87;100.00;100978.69;8224987;28;20105;-90
2023/08/11 04:08:48;;;;;;;14.63;5.30;;;;;;;15.93;100.00;100972.56;8223933;28;20058;-89
2023/08/11 04:12:48;;;;;;;11.18;5.50;;;;;;;15.86;100.00;100980.56;8240466;28;20050;-89
2023/08/11 04:16:50;;;;;;;11.60;5.20;;;;;;;15.63;100.00;100960.31;8239968;28;20097;-90
2023/08/11 04:20:51;;;;;;;13.95;5.88;;;;;;;15.60;100.00;100947.88;8240774;28;20085;-90
2023/08/11 04:24:51;;;;;;;9.70;5.50;;;;;;;15.54;100.00;100940.38;8240424;28;20038;-89
2023/08/11 04:28:53;;;;;;;11.18;5.05;;;;;;;15.76;100.00;100959.91;8206007;28;20129;-89
2023/08/11 04:32:55;;;;;;;14.68;6.55;;;;;;;15.77;100.00;100985.09;8230056;28;20034;-89
2023/08/11 04:36:56;;;;;;;8.77;5.38;;;;;;;15.52;100.00;100926.03;8220187;28;20043;-89
2023/08/11 04:40:57;;;;;;;11.38;5.63;;;;;;;15.73;100.00;100967.38;8222061;28;20038;-89
2023/08/11 04:44:58;;;;;;;11.73;5.18;;;;;;;15.82;100.00;100953.78;8195023;28;20063;-89
2023/08/11 04:48:59;;;;;;;10.23;5.05;;;;;;;15.77;100.00;100945.22;8216455;28;20117;-88
2023/08/11 04:52:59;;;;;;;10.73;5.07;;;;;;;16.07;100.00;100969.22;8205535;28;20097;-88
2023/08/11 04:57:00;;;;;;;9.68;4.95;;;;;;;16.05;100.00;100957.63;8220987;28;20070;-88
2023/08/11 05:01:03;;;;;;;12.75;5.05;;;;;;;16.07;100.00;100963.78;8226990;28;20524;-89
2023/08/11 05:05:05;;;;;;;8.10;5.32;;;;;;;16.38;100.00;100984.00;8235164;28;20073;-88
2023/08/11 05:09:06;;;;;;;10.07;4.78;;;;;;;16.43;100.00;100976.16;8269750;28;20042;-89
2023/08/11 05:13:07;;;;;;;9.30;4.78;;;;;;;16.41;100.00;100978.22;8252388;28;20070;-88
2023/08/11 05:17:07;;;;;;;14.18;5.90;;;;;;;16.64;100.00;100995.69;8228455;28;20039;-89
2023/08/11 05:21:08;;;;;;;9.60;5.05;;;;;;;16.64;100.00;100980.16;8210379;28;20027;-89
2023/08/11 05:25:09;;;;;;;11.32;4.40;;;;;;;17.00;100.00;101000.69;8218803;28;20046;-88
2023/08/11 05:29:09;;;;;;;9.85;4.95;;;;;;;16.85;100.00;100944.16;8228010;28;20390;-90
2023/08/11 05:33:10;;;;;;;8.52;4.88;;;;;;;17.35;100.00;100974.84;8219248;28;20046;-89
2023/08/11 05:37:10;;;;;;;8.35;4.93;;;;;;;17.52;97.82;100987.53;8240516;28;20065;-90
2023/08/11 05:41:11;;;;;;;10.70;4.40;;;;;;;17.68;97.01;100994.84;8267745;28;20062;-89
2023/08/11 05:45:12;;;;;;;6.43;4.32;;;;;;;17.73;96.71;100990.56;8232727;28;20039;-90
2023/08/11 05:49:12;;;;;;;8.25;4.22;;;;;;;18.19;93.42;100986.97;8215497;28;20043;-89
2023/08/11 05:53:13;;;;;;;7.80;4.30;;;;;;;18.41;92.84;100999.88;8238207;28;20055;-90
2023/08/11 05:57:13;;;;;;;6.28;4.25;;;;;;;18.63;92.08;100990.03;8205325;28;20121;-90
2023/08/11 06:01:14;;;;;;;9.95;4.88;;;;;;;19.02;90.00;100986.13;8248166;28;20058;-90
2023/08/11 06:05:15;;;;;;;5.95;2.97;;;;;;;19.34;86.25;100974.88;8268695;28;20039;-90
2023/08/11 06:09:15;;;;;;;5.18;3.50;;;;;;;19.49;86.46;100973.03;8253710;28;20042;-90
2023/08/11 06:13:16;;;;;;;4.38;2.63;;;;;;;19.67;85.31;100969.09;8252349;28;20038;-90
2023/08/11 06:17:16;;;;;;;8.90;3.33;;;;;;;19.97;83.88;100965.31;8205600;28;20043;-91
2023/08/11 06:21:18;;;;;;;6.13;3.55;;;;;;;19.99;85.01;100974.19;8204026;28;20117;-90
2023/08/11 06:25:19;;;;;;;5.72;3.20;;;;;;;20.29;83.23;100974.00;8209026;28;20043;-90
2023/08/11 06:29:20;;;;;;;8.05;3.78;;;;;;;20.34;82.21;100955.03;8242302;28;20125;-90
2023/08/11 06:33:20;;;;;;;5.90;3.22;;;;;;;20.81;82.02;100973.75;8260081;28;20536;-90
2023/08/11 06:37:21;;;;;;;5.35;3.28;;;;;;;21.18;79.17;100957.03;8226846;28;20366;-89
2023/08/11 06:41:22;;;;;;;4.47;2.75;;;;;;;21.35;78.91;100974.97;8241950;28;20493;-90
2023/08/11 06:45:22;;;;;;;6.85;2.80;;;;;;;21.43;79.83;100972.03;8269513;28;20062;-90
2023/08/11 06:49:23;;;;;;;4.55;2.63;;;;;;;21.62;80.20;100965.81;8289429;28;20014;-88
2023/08/11 06:53:23;;;;;;;5.03;3.22;;;;;;;22.05;78.27;100974.84;8280888;28;20461;-88
2023/08/11 06:57:24;;;;;;;5.47;2.85;;;;;;;22.25;77.60;100960.09;8268773;28;20031;-87
2023/08/11 07:01:25;;;;;;;8.20;3.50;;;;;;;22.25;78.49;100968.34;8308623;28;20042;-88
2023/08/11 07:05:26;;;;;;;5.05;3.05;;;;;;;22.50;77.53;100950.25;8278814;28;20050;-86
2023/08/11 07:09:26;;;;;;;4.90;3.03;;;;;;;22.70;76.69;100973.22;8237770;28;20022;-88
2023/08/11 07:13:27;;;;;;;6.43;2.90;;;;;;;22.90;77.53;100979.63;8266103;28;20110;-88
2023/08/11 07:17:28;;;;;;;5.97;3.10;;;;;;;23.32;75.78;100967.41;8210262;28;20400;-88
2023/08/11 07:21:28;;;;;;;6.10;3.10;;;;;;;23.68;77.81;100976.09;8221573;28;20070;-88
2023/08/11 07:25:29;;;;;;;6.72;3.00;;;;;;;23.62;74.97;100974.19;8225572;28;20019;-88
2023/08/11 07:29:29;;;;;;;7.70;3.05;;;;;;;24.02;73.83;100974.97;8203317;28;20047;-89
2023/08/11 07:33:30;;;;;;;3.47;2.42;;;;;;;24.39;73.43;100971.44;8210470;28;20043;-88
2023/08/11 07:37:31;;;;;;;2.95;2.20;;;;;;;24.73;72.86;100982.19;8206812;28;20039;-88
2023/08/11 07:41:31;;;;;;;5.88;2.63;;;;;;;25.00;71.62;100987.31;8224583;28;20114;-89
2023/08/11 07:45:33;;;;;;;4.25;1.88;;;;;;;25.22;68.70;100976.72;8223481;28;20067;-88
2023/08/11 07:49:34;;;;;;;4.70;2.30;;;;;;;25.24;70.73;100982.88;8239981;28;20046;-89
2023/08/11 07:53:36;;;;;;;3.13;1.63;;;;;;;25.94;67.06;100982.50;8207307;28;20770;-89
2023/08/11 07:57:36;;;;;;;5.60;2.30;;;;;;;25.99;68.06;100949.44;8206688;28;20039;-89
2023/08/11 08:01:37;;;;;;;3.33;2.05;;;;;;;26.21;65.73;100964.53;8234299;28;20046;-88
2023/08/11 08:05:38;;;;;;;6.43;1.92;;;;;;;26.38;65.00;100942.56;8254105;28;20042;-89
2023/08/11 08:09:38;;;;;;;5.88;1.63;;;;;;;26.75;63.21;100983.88;8208945;28;20050;-89
2023/08/11 08:13:39;;;;;;;6.55;2.15;;;;;;;26.77;63.42;100990.06;8221418;28;20509;-88
2023/08/11 08:17:40;;;;;;;4.47;2.22;;;;;;;27.01;62.67;100965.19;8219784;28;20034;-89
2023/08/11 08:21:42;;;;;;;2.90;1.75;;;;;;;27.37;62.53;100976.16;8238401;28;20035;-89
2023/08/11 08:25:42;;;;;;;5.40;1.83;;;;;;;27.66;57.90;100981.63;8238275;28;20042;-88
2023/08/11 08:29:43;;;;;;;4.68;1.50;;;;;;;27.91;58.89;100981.41;8221547;28;20061;-89
2023/08/11 08:33:44;;;;;;;3.55;1.42;;;;;;;27.94;58.93;100972.59;8191206;28;20035;-89
2023/08/11 08:37:44;;;;;;;3.97;1.80;;;;;;;28.08;59.87;100974.00;8238047;28;20042;-89
2023/08/11 08:41:47;;;;;;;2.40;1.38;;;;;;;27.87;55.41;100966.31;8220773;28;20114;-89
2023/08/11 08:45:49;;;;;;;1.83;1.40;;;;;;;28.07;55.99;100969.56;8196601;28;20047;-88
2023/08/11 08:49:50;;;;;;;4.28;2.00;;;;;;;28.54;55.14;100968.38;8203654;28;20039;-89
2023/08/11 08:53:51;;;;;;;3.22;1.10;;;;;;;28.77;54.48;100957.19;8196739;28;20088;-89
2023/08/11 19:59:10;;;;;;;4.75;2.67;;;;;;;24.75;87.42;100739.38;8392288;27;20907;-61
2023/08/11 20:03:11;;;;;;;9.25;2.67;;;;;;;25.05;84.47;100732.06;8381777;28;20422;-60
2023/08/11 20:07:12;;;;;;;5.40;2.55;;;;;;;25.27;83.00;100730.53;8389024;27;20504;-60
2023/08/11 20:11:13;;;;;;;10.15;3.38;;;;;;;25.46;81.21;100729.47;8383065;27;20584;-60
2023/08/11 20:15:13;;;;;;;3.47;2.58;;;;;;;25.34;84.01;100738.78;8380556;28;20128;-62
2023/08/11 20:19:14;;;;;;;4.53;2.60;;;;;;;25.52;84.45;100736.00;8382012;28;20096;-61
2023/08/11 20:23:14;;;;;;;5.43;2.63;;;;;;;25.46;82.39;100743.31;8379233;27;20453;-60
2023/08/11 20:27:15;;;;;;;5.45;2.88;;;;;;;25.75;79.41;100778.53;8384400;27;20051;-61
2023/08/11 20:31:15;;;;;;;8.65;3.30;;;;;;;25.73;81.82;100772.38;8377591;27;20045;-61
2023/08/11 20:35:16;;;;;;;13.05;3.70;;;;;;;25.52;84.80;100786.69;8382036;27;20062;-60
2023/08/11 20:39:16;;;;;;;16.67;3.60;;;;;;;25.47;86.46;100788.47;8379064;27;20044;-60
2023/08/11 20:43:17;;;;;;;8.57;3.60;;;;;;;25.33;88.91;100781.38;8378128;27;20091;-60
2023/08/11 20:47:18;;;;;;;4.47;3.25;;;;;;;25.15;92.47;100773.88;8379662;28;20040;-60
2023/08/11 20:51:19;;;;;;;11.18;4.20;;;;;;;25.07;94.78;100774.19;8360395;28;20123;-60
2023/08/11 20:55:19;;;;;;;12.40;5.43;;;;;;;24.99;100.00;100780.00;8375913;27;20472;-59
2023/08/11 20:59:20;;;;;;;11.93;5.93;;;;;;;24.64;100.00;100785.22;8379611;27;20454;-59
2023/08/11 21:03:20;;;;;;;9.95;6.20;;;;;;;24.38;100.00;100776.25;8377948;27;20572;-60
2023/08/11 21:07:21;;;;;;;18.23;7.05;;;;;;;24.33;100.00;100787.97;8374336;28;20229;-59
2023/08/11 21:11:21;;;;;;;11.65;7.70;;;;;;;24.32;100.00;100793.72;8356238;28;20049;-59
2023/08/11 21:15:22;;;;;;;15.18;8.63;;;;;;;24.25;100.00;100798.47;8344698;28;20122;-60
2023/08/11 21:19:22;;;;;;;14.50;8.63;;;;;;;24.23;100.00;100803.34;8344407;28;20044;-59
2023/08/11 21:23:23;;;;;;;13.82;9.55;;;;;;;24.17;100.00;100804.22;8355411;28;20589;-60
2023/08/11 21:27:24;;;;;;;15.32;9.90;;;;;;;24.09;100.00;100796.22;8355482;28;20101;-60
2023/08/11 21:31:24;;;;;;;17.55;10.30;;;;;;;24.06;100.00;100796.66;8348826;28;20049;-59
2023/08/11 21:35:25;;;;;;;17.67;11.50;;;;;;;23.93;100.00;100810.50;8356390;28;20422;-60
2023/08/11 21:39:25;;;;;;;19.00;10.88;;;;;;;23.87;100.00;100814.13;8354667;28;20037;-60
2023/08/11 21:43:26;;;;;;;19.58;12.38;;;;;;;23.63;100.00;100817.66;8354557;28;20606;-59
2023/08/11 21:47:26;;;;;;;19.13;11.57;;;;;;;23.49;100.00;100827.03;8355464;28;20053;-60
2023/08/11 21:51:27;;;;;;;24.13;14.57;;;;;;;23.33;100.00;100833.03;8353795;28;20041;-60
2023/08/11 21:55:27;;;;;;;24.13;13.60;;;;;;;23.17;100.00;100837.91;8352874;28;20448;-59
2023/08/11 21:59:28;;;;;;;22.88;13.50;;;;;;;23.03;100.00;100836.19;8356219;28;20377;-59
2023/08/11 22:03:28;;;;;;;22.95;14.55;;;;;;;23.02;100.00;100839.16;8353917;28;20041;-59
2023/08/11 22:07:29;;;;;;;29.25;15.05;;;;;;;22.97;100.00;100855.53;8386940;28;20056;-58
2023/08/11 22:11:29;;;;;;;24.88;14.80;;;;;;;22.90;100.00;100863.78;8354172;28;20048;-59
2023/08/11 22:15:30;;;;;;;27.45;18.65;;;;;;;22.87;100.00;100872.50;8353005;28;20067;-59
2023/08/11 22:19:30;;;;;;;33.03;17.70;;;;;;;22.77;100.00;100869.31;8353041;28;20102;-59
2023/08/11 22:23:31;;;;;;;34.20;17.58;;;;;;;22.75;100.00;100874.19;8348263;28;20051;-60
2023/08/11 22:27:32;;;;;;;35.35;21.45;;;;;;;22.71;100.00;100853.59;8353632;28;20132;-59
2023/08/11 22:31:32;;;;;;;39.70;20.60;;;;;;;22.64;100.00;100841.75;8350475;28;20414;-59
2023/08/11 22:35:33;;;;;;;36.90;20.98;;;;;;;22.53;100.00;100839.59;8354105;28;20095;-59
2023/08/11 22:39:33;;;;;;;34.10;21.63;;;;;;;22.46;100.00;100846.97;8357401;28;20040;-59
2023/08/11 22:43:34;;;;;;;39.03;21.15;;;;;;;22.54;100.00;100835.75;8353023;28;20518;-59
2023/08/11 22:47:34;;;;;;;39.75;20.92;;;;;;;22.47;100.00;100839.53;8354264;28;20036;-59
2023/08/11 22:51:35;;;;;;;33.78;19.45;;;;;;;22.46;100.00;100838.72;8351643;28;20064;-58
2023/08/11 22:55:35;;;;;;;33.22;16.92;;;;;;;22.36;100.00;100838.28;8348589;28;20037;-59
2023/08/11 22:59:37;;;;;;;31.65;16.95;;;;;;;22.42;100.00;100836.59;8335926;28;20079;-59
2023/08/11 23:03:37;;;;;;;28.80;17.52;;;;;;;22.47;100.00;100817.50;8336734;28;20056;-59
2023/08/11 23:07:39;;;;;;;30.40;17.85;;;;;;;22.46;100.00;100811.16;8340924;28;20044;-59
2023/08/11 23:11:40;;;;;;;28.85;17.25;;;;;;;22.38;100.00;100819.59;8339954;28;20048;-60
2023/08/11 23:15:40;;;;;;;28.60;16.45;;;;;;;22.39;100.00;100826.84;8340147;28;20526;-59
2023/08/11 23:19:40;;;;;;;27.67;17.13;;;;;;;22.32;100.00;100825.94;8341475;28;20041;-59
2023/08/11 23:23:41;;;;;;;31.52;17.63;;;;;;;22.32;100.00;100836.97;8348641;28;20395;-59
2023/08/11 23:27:42;;;;;;;35.17;19.25;;;;;;;22.28;100.00;100840.34;8372809;28;20406;-59
2023/08/11 23:31:42;;;;;;;31.50;18.45;;;;;;;22.39;100.00;100832.34;8371447;28;20040;-59
2023/08/11 23:35:43;;;;;;;26.65;17.15;;;;;;;22.43;100.00;100828.09;8373048;28;20521;-59
2023/08/11 23:39:43;;;;;;;30.50;19.65;;;;;;;22.33;100.00;100835.94;8372665;28;20037;-59
2023/08/11 23:43:44;;;;;;;38.42;19.30;;;;;;;22.41;100.00;100830.22;8371935;28;20041;-59
2023/08/11 23:47:44;;;;;;;34.10;19.45;;;;;;;22.40;100.00;100823.00;8374263;28;20131;-59
2023/08/11 23:51:45;;;;;;;37.53;20.20;;;;;;;22.43;100.00;100822.59;8369288;28;20075;-59
2023/08/11 23:55:45;;;;;;;39.50;20.90;;;;;;;22.44;100.00;100812.41;8372448;28;20037;-60
2023/08/11 23:59:46;;;;;;;38.95;21.60;;;;;;;22.37;100.00;100806.91;8370420;28;20102;-60
